KPPF/PPF METAR and TAF weather

Enter ICAO airport designator
Station Type Date Time Source
KPPF METAR 2020/04/03 07:52 UTC NOAA

KPPF 030752Z AUTO 35012G21KT 10SM OVC017 06/03 A2999 RMK AO2 RAB00E37 SLP153 P0001 T00610033


Station Type Date Time Source
KPPF Decoded METAR 2020/04/03 07:52 UTC NOAA

PARSONS TRI-CITY AIRPORT, KS, United States (KPPF) 37-20N 95-30W 274M
Apr 03, 2020 - 03:52 AM EDT / 2020.04.03 0752 UTC
Wind: from the N (350 degrees) at 14 MPH (12 KT) gusting to 24 MPH (21 KT):0
Visibility: 10 mile(s):0
Sky conditions: overcast
Precipitation last hour: 0.01 inches
Temperature: 43.0 F (6.1 C)
Dew Point: 37.9 F (3.3 C)
Relative Humidity: 82%
Pressure (altimeter): 29.99 in. Hg (1015 hPa)
ob: KPPF 030752Z AUTO 35012G21KT 10SM OVC017 06/03 A2999 RMK AO2 RAB00E37 SLP153 P0001 T00610033
cycle: 8

Station Type Date Time Source
KPPF TAF UTC NOAA

Error!

Example: see airport list